Time;durP1;ratioP1;P1;durP2;ratioP2;P2;SDS_P1;SDS_P2;PMS_P1;PMS_P2;Temp;Humidity;BMP_temperature;BMP_pressure;BME280_temperature;BME280_humidity;BME280_pressure;Samples;Min_cycle;Max_cycle;Signal;HPM_P1;HPM_P2
2023/07/28 00:01:10;;;;;;;5.00;4.20;;;;;;;9.54;100.00;97183.58;110093;1245;58955;-70
2023/07/28 00:03:40;;;;;;;7.40;4.40;;;;;;;9.51;100.00;97182.23;110117;1242;58912;-70
2023/07/28 00:06:09;;;;;;;6.30;4.50;;;;;;;9.49;100.00;97178.77;110151;1242;71206;-70
2023/07/28 00:08:40;;;;;;;5.90;4.60;;;;;;;9.49;100.00;97178.78;110175;1245;68622;-69
2023/07/28 00:11:14;;;;;;;6.20;4.90;;;;;;;9.49;100.00;97179.10;110114;1243;69720;-68
2023/07/28 00:13:44;;;;;;;6.00;4.60;;;;;;;9.47;100.00;97176.42;110129;1243;58959;-69
2023/07/28 00:16:14;;;;;;;5.90;4.80;;;;;;;9.47;100.00;97181.48;110205;1244;58867;-69
2023/07/28 00:18:43;;;;;;;7.80;4.70;;;;;;;9.43;100.00;97179.66;110113;1242;69941;-69
2023/07/28 00:21:13;;;;;;;6.90;5.30;;;;;;;9.39;100.00;97176.98;110140;1244;69231;-70
2023/07/28 00:23:43;;;;;;;5.30;3.70;;;;;;;9.36;100.00;97177.78;110171;1244;69349;-70
2023/07/28 00:26:12;;;;;;;4.50;3.60;;;;;;;9.32;100.00;97181.88;109743;1242;578054;-69
2023/07/28 00:28:42;;;;;;;;;;;;;;;9.27;100.00;97182.55;110172;1243;58879;-71
2023/07/28 00:31:13;;;;;;;6.40;4.70;;;;;;;9.23;100.00;97188.30;110172;1244;68956;-71
2023/07/28 00:33:43;;;;;;;;;;;;;;;9.18;100.00;97189.63;110057;1241;69280;-70
2023/07/28 00:36:15;;;;;;;4.90;4.10;;;;;;;9.14;100.00;97191.09;110246;1243;69429;-70
2023/07/28 00:38:47;;;;;;;6.10;4.90;;;;;;;9.15;100.00;97191.89;110149;1244;58902;-71
2023/07/28 00:41:19;;;;;;;5.80;4.80;;;;;;;9.14;100.00;97187.42;110170;1244;58907;-68
2023/07/28 00:43:50;;;;;;;4.90;3.90;;;;;;;9.14;100.00;97188.70;110142;1244;70404;-70
2023/07/28 00:46:23;;;;;;;6.40;4.60;;;;;;;9.12;100.00;97187.61;110172;1243;69400;-70
2023/07/28 00:48:54;;;;;;;5.90;5.20;;;;;;;9.10;100.00;97183.73;110103;1242;69331;-69
2023/07/28 00:51:25;;;;;;;5.20;3.70;;;;;;;9.10;100.00;97182.39;109955;1244;58944;-70
2023/07/28 00:53:59;;;;;;;5.90;4.70;;;;;;;9.08;100.00;97177.64;110118;1241;58936;-69
2023/07/28 00:56:30;;;;;;;5.10;4.30;;;;;;;9.07;100.00;97178.24;110104;1241;70594;-70
2023/07/28 00:59:02;;;;;;;5.80;4.30;;;;;;;9.07;100.00;97178.95;110126;1244;68524;-70
2023/07/28 01:01:36;;;;;;;5.70;4.50;;;;;;;9.06;100.00;97183.02;109990;1242;69384;-70
2023/07/28 01:04:06;;;;;;;6.60;4.80;;;;;;;9.05;100.00;97187.73;110067;1244;58887;-71
2023/07/28 01:06:49;;;;;;;5.40;4.70;;;;;;;9.03;100.00;97186.30;110185;1241;58893;-69
2023/07/28 01:09:29;;;;;;;6.20;5.10;;;;;;;9.02;100.00;97188.55;110133;1244;70506;-70
2023/07/28 01:12:01;;;;;;;6.20;4.20;;;;;;;8.99;100.00;97191.12;110121;1241;68468;-70
2023/07/28 01:14:31;;;;;;;7.20;4.20;;;;;;;8.97;100.00;97187.85;110128;1244;69221;-70
2023/07/28 01:17:03;;;;;;;5.10;4.40;;;;;;;8.93;100.00;97187.39;110165;1245;58882;-70
2023/07/28 01:19:35;;;;;;;7.80;5.20;;;;;;;8.90;100.00;97189.00;110128;1244;59340;-69
2023/07/28 01:22:34;;;;;;;8.00;5.30;;;;;;;8.87;100.00;97188.48;110177;1241;69749;-69
2023/07/28 01:25:42;;;;;;;6.40;4.70;;;;;;;8.84;100.00;97193.58;110211;1243;68558;-69
2023/07/28 01:28:13;;;;;;;7.60;4.80;;;;;;;8.80;100.00;97202.08;110147;1245;69124;-69
2023/07/28 01:30:48;;;;;;;6.00;4.30;;;;;;;8.77;100.00;97202.05;110160;1244;58896;-71
2023/07/28 01:33:20;;;;;;;6.80;4.60;;;;;;;8.75;100.00;97206.55;110164;1245;59255;-70
2023/07/28 01:35:52;;;;;;;9.30;5.60;;;;;;;8.75;100.00;97203.95;110183;1244;69948;-70
2023/07/28 01:38:25;;;;;;;6.70;5.00;;;;;;;8.75;100.00;97205.83;110101;1244;69211;-70
2023/07/28 01:40:56;;;;;;;8.30;5.90;;;;;;;8.74;100.00;97202.82;110063;1244;69311;-70
2023/07/28 01:43:27;;;;;;;7.10;4.70;;;;;;;8.73;100.00;97202.89;110133;1244;58951;-70
2023/07/28 01:45:58;;;;;;;6.60;4.90;;;;;;;8.71;100.00;97199.52;110115;1243;58944;-69
2023/07/28 01:48:30;;;;;;;5.90;5.10;;;;;;;8.71;100.00;97198.52;110095;1241;70571;-69
2023/07/28 01:51:01;;;;;;;6.70;4.80;;;;;;;8.69;100.00;97198.81;110100;1242;68448;-69
2023/07/28 01:53:31;;;;;;;6.90;5.50;;;;;;;8.67;100.00;97203.40;109997;1247;69335;-70
2023/07/28 01:56:02;;;;;;;5.70;4.50;;;;;;;8.66;100.00;97204.66;110137;1244;58921;-70
2023/07/28 01:58:36;;;;;;;5.40;3.80;;;;;;;8.65;100.00;97211.20;110088;1241;58935;-70
2023/07/28 02:01:15;;;;;;;5.00;3.80;;;;;;;8.64;100.00;97215.25;109910;1245;70649;-70
2023/07/28 02:03:53;;;;;;;5.60;4.90;;;;;;;8.64;100.00;97217.02;109949;1245;69332;-70
2023/07/28 02:06:24;;;;;;;8.90;6.90;;;;;;;8.66;100.00;97215.46;109856;1244;69193;-70
2023/07/28 02:08:54;;;;;;;6.80;5.80;;;;;;;8.68;100.00;97217.95;109967;1243;59009;-70
2023/07/28 02:11:26;;;;;;;7.80;5.60;;;;;;;8.70;100.00;97215.26;110154;1244;58883;-70
2023/07/28 02:13:59;;;;;;;7.60;5.70;;;;;;;8.69;100.00;97216.52;110025;1244;70577;-70
2023/07/28 02:16:32;;;;;;;7.50;5.00;;;;;;;8.67;100.00;97217.17;110143;1241;68775;-69
2023/07/28 02:19:02;;;;;;;5.90;4.70;;;;;;;8.65;100.00;97219.55;110243;1245;69333;-70
2023/07/28 02:21:32;;;;;;;9.60;6.20;;;;;;;8.64;100.00;97229.88;110161;1243;58944;-70
2023/07/28 02:24:03;;;;;;;7.80;5.60;;;;;;;8.63;100.00;97236.03;110145;1244;58937;-70
2023/07/28 02:26:37;;;;;;;6.50;5.10;;;;;;;8.62;100.00;97240.96;110104;1243;69823;-70
2023/07/28 02:29:08;;;;;;;7.00;5.50;;;;;;;8.60;100.00;97239.36;110183;1244;69118;-70
2023/07/28 02:31:39;;;;;;;6.70;5.50;;;;;;;8.59;100.00;97241.81;110145;1244;69742;-69
2023/07/28 02:34:11;;;;;;;7.00;5.70;;;;;;;8.58;100.00;97248.48;110118;1244;58899;-69
2023/07/28 02:36:42;;;;;;;7.20;6.10;;;;;;;8.55;100.00;97248.77;110110;1245;58949;-69
2023/07/28 02:39:13;;;;;;;7.30;5.50;;;;;;;8.51;100.00;97251.92;110155;1244;70502;-70
2023/07/28 02:41:43;;;;;;;;;;;;;;;8.49;100.00;97247.90;110162;1244;68369;-69
2023/07/28 02:44:17;;;;;;;7.10;5.80;;;;;;;8.47;100.00;97249.41;110095;1243;69326;-70
2023/07/28 02:46:50;;;;;;;9.40;7.00;;;;;;;8.45;100.00;97242.79;110101;1243;58975;-70
2023/07/28 02:49:23;;;;;;;7.80;6.20;;;;;;;8.43;100.00;97240.84;110083;1244;58828;-70
2023/07/28 02:51:54;;;;;;;8.30;6.30;;;;;;;8.42;100.00;97237.97;110025;1245;70728;-70
2023/07/28 02:54:25;;;;;;;7.00;5.80;;;;;;;8.43;100.00;97235.33;110057;1241;69150;-69
2023/07/28 02:56:57;;;;;;;8.00;6.00;;;;;;;8.43;100.00;97237.23;110151;1244;69271;-70
2023/07/28 02:59:30;;;;;;;7.50;5.90;;;;;;;8.44;100.00;97235.25;110125;1244;58953;-70
2023/07/28 03:02:02;;;;;;;8.70;6.00;;;;;;;8.48;100.00;97230.45;110104;1245;58941;-70
2023/07/28 03:04:35;;;;;;;10.20;7.40;;;;;;;8.51;100.00;97232.85;110162;1244;69868;-70
2023/07/28 03:07:38;;;;;;;8.60;6.30;;;;;;;8.55;100.00;97233.27;110093;1244;69109;-70
2023/07/28 03:10:16;;;;;;;8.80;6.70;;;;;;;8.56;100.00;97235.95;110102;1243;68562;-70
2023/07/28 03:12:47;;;;;;;7.80;5.80;;;;;;;8.58;100.00;97238.27;110155;1244;58937;-70
2023/07/28 03:15:18;;;;;;;7.20;5.50;;;;;;;8.60;100.00;97239.71;110174;1244;58950;-70
2023/07/28 03:17:51;;;;;;;6.90;5.30;;;;;;;8.60;100.00;97244.00;110106;1241;70641;-70
2023/07/28 03:20:21;;;;;;;10.10;6.80;;;;;;;8.62;100.00;97241.44;110156;1245;68259;-70
2023/07/28 03:22:54;;;;;;;11.70;8.30;;;;;;;8.69;100.00;97237.86;110129;1244;68291;-69
2023/07/28 03:25:25;;;;;;;11.10;7.70;;;;;;;8.75;100.00;97235.38;110107;1244;58888;-71
2023/07/28 03:27:57;;;;;;;8.00;5.80;;;;;;;8.79;100.00;97241.19;110038;1241;58951;-71
2023/07/28 03:30:29;;;;;;;7.20;5.70;;;;;;;8.82;100.00;97241.32;110119;1241;69771;-70
2023/07/28 03:32:59;;;;;;;7.30;5.70;;;;;;;8.87;100.00;97243.80;110218;1245;68770;-70
2023/07/28 03:35:30;;;;;;;8.90;6.80;;;;;;;8.89;100.00;97235.60;110126;1244;68456;-70
2023/07/28 03:38:08;;;;;;;8.70;6.30;;;;;;;8.94;100.00;97234.64;110088;1245;58882;-70
2023/07/28 03:40:43;;;;;;;7.20;5.70;;;;;;;8.97;100.00;97236.83;110138;1245;58903;-69
2023/07/28 03:43:13;;;;;;;7.20;6.10;;;;;;;9.02;100.00;97241.02;110199;1241;69906;-69
2023/07/28 03:45:43;;;;;;;9.00;6.60;;;;;;;9.07;100.00;97246.38;110255;1244;69126;-69
2023/07/28 03:48:14;;;;;;;7.70;5.70;;;;;;;9.14;100.00;97258.77;110091;1245;69312;-70
2023/07/28 03:50:44;;;;;;;7.60;5.80;;;;;;;9.21;100.00;97258.80;110141;1245;58931;-69
2023/07/28 03:53:14;;;;;;;7.70;6.20;;;;;;;9.26;100.00;97259.64;110269;1244;58893;-70
2023/07/28 03:55:43;;;;;;;7.30;5.90;;;;;;;9.32;100.00;97258.23;110106;1242;69693;-72
2023/07/28 03:58:13;;;;;;;6.70;5.70;;;;;;;9.37;100.00;97255.42;110114;1246;69210;-71
2023/07/28 04:00:44;;;;;;;10.40;7.40;;;;;;;9.47;100.00;97245.82;110087;1243;69179;-71
2023/07/28 04:03:14;;;;;;;10.10;6.70;;;;;;;9.60;100.00;97240.71;110113;1243;58906;-70
2023/07/28 04:05:46;;;;;;;6.80;5.90;;;;;;;9.69;100.00;97238.89;110135;1244;58880;-70
2023/07/28 04:08:17;;;;;;;9.30;6.40;;;;;;;9.78;100.00;97239.29;110196;1241;70577;-71
2023/07/28 04:10:48;;;;;;;7.50;5.80;;;;;;;9.89;100.00;97241.42;110087;1242;68400;-71
2023/07/28 04:13:18;;;;;;;6.10;5.30;;;;;;;9.96;100.00;97239.70;110087;1244;68550;-73
2023/07/28 04:15:49;;;;;;;8.40;6.70;;;;;;;10.07;100.00;97241.70;110173;1245;58941;-72
2023/07/28 04:18:20;;;;;;;7.30;5.90;;;;;;;10.17;100.00;97240.21;110070;1245;58879;-70
2023/07/28 04:20:50;;;;;;;6.40;5.50;;;;;;;10.31;100.00;97238.91;110157;1243;70739;-71
2023/07/28 04:23:20;;;;;;;;;;;;;;;10.48;100.00;97238.13;110119;1245;69421;-71
2023/07/28 04:25:49;;;;;;;6.60;5.00;;;;;;;10.73;100.00;97241.70;110122;1245;68605;-71
2023/07/28 04:28:19;;;;;;;7.60;5.30;;;;;;;11.03;100.00;97242.67;110109;1244;58936;-71
2023/07/28 04:30:49;;;;;;;5.50;4.20;;;;;;;11.32;100.00;97242.49;110051;1245;58866;-72
2023/07/28 04:33:45;;;;;;;8.30;4.90;;;;;;;11.57;100.00;97241.95;110121;1243;70908;-70
2023/07/28 04:36:15;;;;;;;;;;;;;;;11.70;100.00;97242.45;110175;1244;69047;-69
2023/07/28 04:38:45;;;;;;;5.50;4.50;;;;;;;11.79;100.00;97242.12;110033;1241;68583;-72
2023/07/28 04:41:15;;;;;;;4.80;4.30;;;;;;;11.86;100.00;97244.21;110245;1244;58940;-70
2023/07/28 04:43:54;;;;;;;5.20;4.20;;;;;;;11.91;100.00;97240.11;110329;1241;58867;-72
2023/07/28 04:46:24;;;;;;;6.00;4.80;;;;;;;11.99;100.00;97237.40;110188;1244;71204;-71
2023/07/28 04:48:57;;;;;;;7.10;5.30;;;;;;;12.05;100.00;97238.07;110111;1245;68877;-70
2023/07/28 04:51:59;;;;;;;5.10;4.10;;;;;;;12.17;100.00;97237.48;110101;1247;69289;-71
2023/07/28 04:54:47;;;;;;;5.10;4.30;;;;;;;12.28;100.00;97241.83;110137;1242;58891;-72
2023/07/28 04:57:18;;;;;;;7.60;5.20;;;;;;;12.37;100.00;97244.91;110199;1244;58896;-71
2023/07/28 04:59:48;;;;;;;5.80;4.60;;;;;;;12.47;100.00;97246.15;110171;1244;69839;-72
2023/07/28 05:02:18;;;;;;;6.20;4.60;;;;;;;12.56;100.00;97246.13;110180;1241;69313;-71
2023/07/28 05:04:48;;;;;;;6.30;4.90;;;;;;;12.66;100.00;97243.88;110128;1243;69262;-71
2023/07/28 05:07:18;;;;;;;4.80;4.00;;;;;;;12.79;100.00;97248.40;110145;1248;58888;-71
2023/07/28 05:09:47;;;;;;;5.50;4.50;;;;;;;12.95;100.00;97248.77;110133;1245;58841;-71
2023/07/28 05:12:16;;;;;;;6.60;5.40;;;;;;;13.11;100.00;97249.49;110188;1241;70802;-71
2023/07/28 05:14:47;;;;;;;4.60;4.10;;;;;;;13.36;100.00;97249.33;110139;1245;69441;-71
2023/07/28 05:17:19;;;;;;;8.30;5.00;;;;;;;13.72;100.00;97248.46;110031;1245;69865;-71
2023/07/28 05:20:09;;;;;;;6.80;6.20;;;;;;;14.27;100.00;97249.80;110140;1241;58948;-72
2023/07/28 05:22:54;;;;;;;7.80;6.70;;;;;;;14.84;98.55;97248.52;110275;1244;58834;-72
2023/07/28 05:25:26;;;;;;;8.20;6.90;;;;;;;15.38;99.11;97248.02;110171;1241;70768;-73
2023/07/28 05:27:56;;;;;;;6.80;5.70;;;;;;;15.69;95.82;97247.56;110159;1244;69440;-71
2023/07/28 05:30:25;;;;;;;10.50;7.90;;;;;;;15.93;93.39;97249.95;110202;1245;69865;-70
2023/07/28 05:32:59;;;;;;;9.50;7.30;;;;;;;16.23;93.61;97248.09;110205;1244;58886;-74
2023/07/28 05:35:46;;;;;;;6.00;4.70;;;;;;;16.75;94.25;97250.83;110197;1245;58843;-73
2023/07/28 05:38:15;;;;;;;5.90;3.60;;;;;;;17.08;86.43;97247.35;110183;1243;71210;-73
2023/07/28 05:40:45;;;;;;;5.80;3.70;;;;;;;17.35;83.92;97251.79;110225;1244;68628;-72
2023/07/28 05:43:14;;;;;;;3.90;3.20;;;;;;;17.34;81.68;97252.94;110108;1244;68350;-71
2023/07/28 05:45:47;;;;;;;4.40;3.10;;;;;;;17.29;80.45;97246.44;110154;1245;58944;-71
2023/07/28 05:48:16;;;;;;;3.40;2.90;;;;;;;17.32;80.77;97246.09;110204;1245;58932;-69
2023/07/28 05:50:45;;;;;;;5.20;2.90;;;;;;;17.33;80.03;97242.34;110272;1245;70578;-71
2023/07/28 05:53:15;;;;;;;4.20;3.10;;;;;;;17.22;78.71;97242.17;110145;1244;68277;-71
2023/07/28 05:55:44;;;;;;;3.80;3.10;;;;;;;17.29;78.65;97238.81;110341;1245;68334;-71
2023/07/28 05:58:14;;;;;;;3.50;2.90;;;;;;;17.40;78.09;97244.77;110184;1244;58912;-71
2023/07/28 06:00:43;;;;;;;4.00;2.60;;;;;;;17.31;77.26;97244.66;110118;1245;58876;-71
2023/07/28 06:03:16;;;;;;;3.50;3.00;;;;;;;17.37;79.15;97249.67;110165;1245;70663;-71
2023/07/28 06:05:58;;;;;;;3.30;2.30;;;;;;;17.70;77.85;97246.80;110137;1245;69959;-72
2023/07/28 06:08:28;;;;;;;4.20;3.10;;;;;;;18.15;76.55;97246.46;110186;1244;68906;-70
2023/07/28 06:10:57;;;;;;;3.20;2.60;;;;;;;18.51;73.72;97251.62;110186;1245;58786;-71
2023/07/28 06:13:27;;;;;;;3.40;2.20;;;;;;;18.89;74.55;97255.64;110075;1245;58965;-71
2023/07/28 06:15:58;;;;;;;2.80;2.30;;;;;;;19.32;72.42;97263.08;110143;1246;69213;-72
2023/07/28 06:18:27;;;;;;;4.00;2.60;;;;;;;19.65;71.70;97258.34;110154;1245;67772;-72
2023/07/28 06:21:07;;;;;;;3.40;2.60;;;;;;;19.79;63.79;97259.06;110202;1245;69299;-70
2023/07/28 06:23:36;;;;;;;5.00;2.20;;;;;;;19.14;62.45;97258.75;110160;1241;59699;-70
2023/07/28 06:26:05;;;;;;;4.50;2.30;;;;;;;19.15;64.17;97259.27;110208;1244;59650;-70
2023/07/28 06:28:38;;;;;;;3.20;2.60;;;;;;;19.11;64.44;97257.21;110189;1241;70761;-70
2023/07/28 06:31:08;;;;;;;4.10;2.00;;;;;;;19.34;64.72;97261.12;110156;1245;69938;-71
2023/07/28 06:33:38;;;;;;;3.40;2.10;;;;;;;19.72;63.13;97258.08;110150;1244;67807;-71
2023/07/28 06:36:07;;;;;;;3.00;2.30;;;;;;;19.94;61.50;97259.39;110149;1244;59705;-70
2023/07/28 06:38:38;;;;;;;3.70;2.30;;;;;;;19.82;61.22;97259.64;110246;1245;59744;-71
2023/07/28 06:41:06;;;;;;;3.20;2.40;;;;;;;20.08;61.02;97260.06;110235;1245;71478;-69
2023/07/28 06:43:36;;;;;;;2.90;2.20;;;;;;;20.36;59.03;97260.80;110152;1241;69052;-71
2023/07/28 06:46:07;;;;;;;2.60;2.00;;;;;;;20.77;59.48;97259.17;110101;1244;69988;-70
2023/07/28 06:48:36;;;;;;;3.50;2.20;;;;;;;21.09;57.52;97260.69;110226;1243;59667;-70
2023/07/28 06:51:07;;;;;;;3.00;2.10;;;;;;;21.42;57.90;97260.89;110135;1244;59670;-69
2023/07/28 06:53:36;;;;;;;3.40;2.30;;;;;;;21.70;54.85;97261.59;110113;1244;71398;-69
2023/07/28 06:56:08;;;;;;;3.00;2.00;;;;;;;21.87;54.27;97259.17;110067;1244;69690;-70
2023/07/28 06:58:37;;;;;;;4.50;2.20;;;;;;;22.14;55.03;97258.16;110115;1244;68940;-70
2023/07/28 07:01:08;;;;;;;2.20;2.00;;;;;;;22.00;51.74;97254.98;110058;1245;59764;-70
2023/07/28 07:03:38;;;;;;;3.40;2.10;;;;;;;22.31;53.10;97252.38;110164;1245;59660;-69
2023/07/28 07:06:07;;;;;;;3.80;2.20;;;;;;;22.45;51.55;97250.58;110181;1245;71264;-72
2023/07/28 07:08:36;;;;;;;3.50;2.20;;;;;;;22.48;51.33;97248.39;110138;1241;69176;-71
2023/07/28 07:11:05;;;;;;;3.60;2.30;;;;;;;22.42;50.85;97247.60;110143;1245;69394;-71
2023/07/28 07:13:35;;;;;;;3.70;2.40;;;;;;;22.62;51.30;97256.11;110185;1242;59698;-71
2023/07/28 07:16:06;;;;;;;3.20;2.20;;;;;;;22.41;50.57;97256.81;110069;1243;59687;-70
2023/07/28 07:18:35;;;;;;;3.00;2.40;;;;;;;22.63;51.40;97257.17;110136;1244;70812;-71
2023/07/28 07:21:05;;;;;;;2.60;2.10;;;;;;;23.00;50.24;97254.94;110202;1244;68508;-71
2023/07/28 07:23:34;;;;;;;3.40;2.10;;;;;;;23.23;49.60;97259.36;110096;1245;69252;-71
2023/07/28 07:26:04;;;;;;;4.10;2.20;;;;;;;23.50;49.66;97262.13;110102;1245;59708;-72
2023/07/28 07:28:35;;;;;;;2.40;1.80;;;;;;;23.72;47.73;97260.36;110214;1244;59700;-70
2023/07/28 07:31:11;;;;;;;3.40;2.30;;;;;;;23.80;48.32;97266.73;110191;1245;72339;-71
2023/07/28 07:33:41;;;;;;;3.40;2.50;;;;;;;24.07;48.04;97266.52;110202;1242;69363;-71
2023/07/28 07:36:18;;;;;;;2.90;2.00;;;;;;;23.85;46.46;97267.08;110152;1242;69216;-68
2023/07/28 07:38:48;;;;;;;2.80;2.00;;;;;;;23.69;47.16;97266.67;110322;1245;60014;-71
2023/07/28 07:41:20;;;;;;;3.50;2.10;;;;;;;23.25;46.23;97265.37;110185;1244;59707;-71
2023/07/28 07:43:53;;;;;;;3.00;2.10;;;;;;;23.05;47.75;97266.80;110152;1244;72005;-71
2023/07/28 07:46:22;;;;;;;2.60;1.80;;;;;;;23.03;49.02;97268.11;110141;1244;69816;-71
2023/07/28 07:48:52;;;;;;;2.70;2.00;;;;;;;23.66;48.72;97271.95;110277;1245;69726;-71
2023/07/28 07:51:20;;;;;;;3.90;2.20;;;;;;;23.96;47.32;97269.58;110235;1245;59701;-69
2023/07/28 07:53:50;;;;;;;2.70;2.00;;;;;;;24.09;46.96;97272.25;110185;1244;59746;-68
2023/07/28 07:56:19;;;;;;;;;;;;;;;24.25;45.94;97271.23;110231;1243;71318;-72
2023/07/28 07:58:48;;;;;;;2.30;1.80;;;;;;;23.74;45.39;97271.54;110190;1244;68518;-70
2023/07/28 08:01:18;;;;;;;2.90;2.10;;;;;;;23.85;45.05;97268.45;110169;1245;69202;-70
2023/07/28 08:03:47;;;;;;;;;;;;;;;24.60;45.05;97265.71;110188;1241;59695;-70
2023/07/28 08:06:17;;;;;;;3.20;2.20;;;;;;;24.97;44.46;97263.98;110158;1245;59754;-70
2023/07/28 08:08:46;;;;;;;3.50;2.00;;;;;;;25.18;43.47;97261.95;110160;1241;70554;-70
2023/07/28 08:11:15;;;;;;;;;;;;;;;25.05;42.19;97255.41;110152;1245;68423;-70
2023/07/28 08:13:45;;;;;;;2.50;1.70;;;;;;;24.29;42.99;97248.34;110143;1244;67508;-71
2023/07/28 08:16:14;;;;;;;2.30;1.70;;;;;;;25.07;43.05;97254.34;110152;1244;59763;-71
2023/07/28 08:18:44;;;;;;;2.50;1.80;;;;;;;25.71;43.12;97251.59;110252;1244;59749;-70
2023/07/28 08:21:13;;;;;;;3.50;1.80;;;;;;;26.33;42.54;97249.98;110216;1244;70400;-70
2023/07/28 08:23:42;;;;;;;;;;;;;;;26.49;39.88;97248.55;110285;1242;69181;-70
2023/07/28 08:26:11;;;;;;;2.30;1.80;;;;;;;26.15;39.83;97246.33;110209;1241;69098;-69
2023/07/28 08:28:40;;;;;;;2.40;1.80;;;;;;;25.79;40.12;97253.48;110149;1244;59702;-71
2023/07/28 08:31:09;;;;;;;3.00;2.00;;;;;;;25.73;40.33;97257.73;110148;1241;59735;-71
2023/07/28 08:33:38;;;;;;;2.20;1.70;;;;;;;25.73;39.83;97255.96;110142;1245;71283;-69
2023/07/28 08:36:08;;;;;;;3.30;1.70;;;;;;;25.82;40.52;97254.41;110169;1245;69163;-69
2023/07/28 08:38:38;;;;;;;3.10;1.60;;;;;;;26.34;39.05;97253.80;110141;1244;69842;-72
2023/07/28 08:41:07;;;;;;;2.20;1.30;;;;;;;26.61;38.54;97246.44;110114;1246;59736;-68
2023/07/28 08:43:37;;;;;;;2.90;1.50;;;;;;;26.89;38.97;97243.38;110192;1242;59715;-69
2023/07/28 08:46:09;;;;;;;2.50;1.60;;;;;;;27.35;38.72;97244.67;110151;1243;72011;-69
2023/07/28 08:48:39;;;;;;;3.90;2.00;;;;;;;27.49;36.71;97251.84;110149;1244;69851;-69
2023/07/28 08:51:11;;;;;;;1.70;1.30;;;;;;;27.42;35.39;97243.36;110115;1244;68714;-70
2023/07/28 08:53:40;;;;;;;2.00;1.40;;;;;;;26.92;36.12;97240.05;110207;1241;59681;-69
2023/07/28 08:56:09;;;;;;;;;;;;;;;27.04;36.04;97239.75;110193;1244;59659;-71
2023/07/28 08:58:40;;;;;;;1.50;1.10;;;;;;;27.11;35.77;97242.33;110219;1244;72126;-70
2023/07/28 09:01:09;;;;;;;2.80;1.60;;;;;;;26.84;35.22;97236.85;110237;1246;69260;-70
2023/07/28 09:03:42;;;;;;;2.40;1.70;;;;;;;26.63;35.53;97241.85;110204;1245;68538;-70
2023/07/28 09:06:12;;;;;;;2.80;1.50;;;;;;;25.52;35.98;97251.67;110208;1245;59731;-71
2023/07/28 09:08:43;;;;;;;2.50;1.80;;;;;;;25.52;35.85;97240.98;110121;1244;59703;-69
2023/07/28 09:11:13;;;;;;;1.70;1.60;;;;;;;25.93;35.50;97241.23;110151;1243;71968;-71
2023/07/28 09:13:42;;;;;;;4.10;1.70;;;;;;;26.38;34.84;97238.54;110142;1245;69277;-71
2023/07/28 09:16:18;;;;;;;;;;;;;;;26.53;35.45;97241.35;110162;1245;69116;-70
2023/07/28 09:18:48;;;;;;;2.00;1.70;;;;;;;26.66;35.40;97232.46;110105;1245;59670;-71
2023/07/28 09:21:20;;;;;;;1.90;1.50;;;;;;;27.06;34.34;97228.39;110092;1245;59747;-69
2023/07/28 09:23:50;;;;;;;2.00;1.50;;;;;;;27.24;33.80;97226.66;110137;1245;71386;-70
2023/07/28 09:26:19;;;;;;;1.80;1.40;;;;;;;27.45;33.72;97224.96;110137;1245;69038;-69
2023/07/28 09:28:48;;;;;;;1.80;1.50;;;;;;;27.28;34.25;97220.08;110096;1245;70223;-69
2023/07/28 09:31:29;;;;;;;3.00;1.90;;;;;;;27.06;33.98;97214.44;110123;1241;59738;-71
2023/07/28 09:33:58;;;;;;;4.20;1.40;;;;;;;26.40;33.76;97210.73;110167;1246;59685;-70
2023/07/28 09:36:27;;;;;;;;;;;;;;;25.97;33.35;97213.21;110137;1244;71350;-70
2023/07/28 09:38:59;;;;;;;1.30;1.00;;;;;;;26.57;33.14;97206.98;110173;1245;69789;-70
2023/07/28 09:41:30;;;;;;;1.70;1.50;;;;;;;27.52;33.15;97206.62;110156;1245;69938;-69
2023/07/28 09:43:59;;;;;;;1.80;1.30;;;;;;;27.72;31.68;97202.34;110161;1245;59726;-70
2023/07/28 09:46:34;;;;;;;2.70;1.40;;;;;;;28.65;31.93;97199.70;110122;1244;59628;-69
2023/07/28 09:49:09;;;;;;;2.70;1.50;;;;;;;29.22;31.16;97198.42;110141;1241;71802;-70
2023/07/28 09:51:41;;;;;;;1.50;1.30;;;;;;;28.69;30.91;97199.03;110081;1246;69140;-70
2023/07/28 09:54:27;;;;;;;2.50;1.40;;;;;;;29.15;31.01;97201.91;110100;1244;69336;-68
2023/07/28 09:56:57;;;;;;;1.70;1.40;;;;;;;28.82;30.79;97197.20;110141;1247;59754;-70
2023/07/28 09:59:36;;;;;;;3.20;1.70;;;;;;;27.73;30.68;97200.54;110090;1241;59735;-70
2023/07/28 10:02:06;;;;;;;2.50;1.70;;;;;;;26.65;32.43;97195.63;110103;1244;71903;-70
2023/07/28 10:04:35;;;;;;;1.90;1.30;;;;;;;26.42;31.56;97195.64;110100;1245;68833;-70
2023/07/28 10:07:07;;;;;;;2.60;1.60;;;;;;;26.63;33.01;97198.08;110122;1244;70085;-70
2023/07/28 10:09:37;;;;;;;3.10;1.30;;;;;;;26.71;33.70;97200.61;110111;1246;59761;-69
2023/07/28 10:12:18;;;;;;;2.10;1.50;;;;;;;26.58;32.73;97196.23;110122;1241;59702;-70
2023/07/28 10:15:00;;;;;;;2.50;1.70;;;;;;;26.72;33.76;97198.19;110122;1241;72028;-69
2023/07/28 10:17:34;;;;;;;1.40;1.30;;;;;;;27.01;33.09;97193.73;110103;1244;68840;-70
2023/07/28 10:20:08;;;;;;;3.30;1.80;;;;;;;26.86;33.67;97183.87;110122;1244;69287;-69
2023/07/28 10:22:46;;;;;;;3.00;1.70;;;;;;;27.64;32.93;97179.10;110135;1245;59674;-69
2023/07/28 10:25:23;;;;;;;1.40;1.20;;;;;;;27.10;32.52;97182.56;110125;1245;59681;-69
2023/07/28 10:27:53;;;;;;;2.30;1.40;;;;;;;27.30;32.48;97182.88;110164;1244;70542;-69
2023/07/28 10:30:24;;;;;;;2.00;1.40;;;;;;;27.04;32.35;97178.23;110144;1243;69719;-69
2023/07/28 10:32:55;;;;;;;1.80;1.30;;;;;;;26.24;33.47;97174.77;110123;1245;69875;-67
2023/07/28 10:35:31;;;;;;;2.60;1.50;;;;;;;25.94;34.41;97173.19;110142;1244;59673;-69
2023/07/28 10:38:33;;;;;;;2.10;1.60;;;;;;;25.10;36.27;97171.89;110147;1244;59715;-69
2023/07/28 10:41:11;;;;;;;2.30;1.50;;;;;;;24.88;35.55;97167.60;110235;1243;71235;-66
2023/07/28 10:43:40;;;;;;;2.10;1.90;;;;;;;24.70;35.04;97166.45;110130;1244;69850;-67
2023/07/28 10:46:21;;;;;;;2.00;1.40;;;;;;;25.19;35.06;97166.41;110160;1241;69903;-69
2023/07/28 10:48:50;;;;;;;;;;;;;;;25.37;34.53;97163.62;110160;1245;59792;-69
2023/07/28 10:51:23;;;;;;;3.30;1.80;;;;;;;25.00;35.06;97165.33;110164;1245;59720;-70
2023/07/28 10:53:55;;;;;;;2.30;1.50;;;;;;;25.05;34.75;97163.06;110178;1244;71247;-71
2023/07/28 10:56:25;;;;;;;2.30;1.60;;;;;;;25.45;34.11;97160.20;110187;1245;69342;-70
2023/07/28 10:59:00;;;;;;;2.80;1.70;;;;;;;25.72;34.03;97151.36;110062;1245;69239;-70
2023/07/28 11:01:33;;;;;;;1.60;1.40;;;;;;;25.90;33.91;97148.54;110100;1241;59725;-69
2023/07/28 11:04:13;;;;;;;2.90;1.80;;;;;;;26.17;33.64;97150.09;110157;1246;59663;-70
2023/07/28 11:06:47;;;;;;;1.80;1.60;;;;;;;26.24;33.16;97155.20;110082;1241;72395;-69
2023/07/28 11:09:18;;;;;;;3.40;1.50;;;;;;;26.48;32.74;97154.42;110115;1245;70129;-70
2023/07/28 11:11:49;;;;;;;2.10;1.60;;;;;;;26.74;32.66;97145.95;110098;1241;69255;-70
2023/07/28 11:14:18;;;;;;;2.10;1.50;;;;;;;26.95;32.36;97148.92;110140;1245;59750;-69
2023/07/28 11:16:47;;;;;;;;;;;;;;;26.98;33.13;97144.82;110182;1244;59688;-70
2023/07/28 11:19:24;;;;;;;2.80;1.90;;;;;;;27.31;32.78;97141.59;110118;1242;71877;-70
2023/07/28 11:21:55;;;;;;;3.40;1.70;;;;;;;27.05;32.63;97142.31;110142;1241;70225;-70
2023/07/28 11:24:25;;;;;;;1.80;1.30;;;;;;;26.90;32.68;97145.80;110161;1245;69811;-71
2023/07/28 11:26:59;;;;;;;2.10;1.20;;;;;;;26.53;34.07;97143.40;110139;1245;59751;-72
2023/07/28 11:29:28;;;;;;;2.70;1.40;;;;;;;26.69;33.18;97146.61;110136;1242;59703;-71
2023/07/28 11:31:57;;;;;;;;;;;;;;;26.66;34.01;97148.48;110163;1241;71981;-71
2023/07/28 11:34:26;;;;;;;;;;;;;;;26.99;32.89;97146.54;110198;1245;69824;-71
2023/07/28 11:36:55;;;;;;;;;;;;;;;26.52;33.66;97139.26;110173;1245;69139;-71
2023/07/28 11:39:25;;;;;;;;;;;;;;;26.90;33.40;97140.73;110161;1243;59742;-72
2023/07/28 11:41:54;;;;;;;2.30;1.60;;;;;;;27.20;33.42;97138.03;110172;1244;59751;-71
2023/07/28 11:44:24;;;;;;;2.50;1.80;;;;;;;27.27;33.51;97137.45;110115;1241;71340;-69
2023/07/28 11:46:55;;;;;;;1.50;1.20;;;;;;;27.23;33.51;97135.28;110148;1243;69810;-70
2023/07/28 11:49:24;;;;;;;2.50;1.50;;;;;;;27.67;33.18;97138.44;110134;1242;70016;-70
2023/07/28 11:51:57;;;;;;;2.50;1.60;;;;;;;27.39;32.41;97140.17;110124;1245;59683;-69